sensor_id;sensor_type;location;lat;lon;timestamp;pressure;altitude;pressure_sealevel;temperature;humidity
6028;BME280;3042;43.194;27.646;2023-09-19T00:00:00;102016.19;;;22.82;100.00
6028;BME280;3042;43.194;27.646;2023-09-19T00:02:27;102015.28;;;22.78;100.00
6028;BME280;3042;43.194;27.646;2023-09-19T00:04:55;102016.88;;;22.67;100.00
6028;BME280;3042;43.194;27.646;2023-09-19T00:07:22;102014.84;;;22.50;100.00
6028;BME280;3042;43.194;27.646;2023-09-19T00:09:49;102023.69;;;22.52;100.00
6028;BME280;3042;43.194;27.646;2023-09-19T00:12:16;102013.06;;;22.49;100.00
6028;BME280;3042;43.194;27.646;2023-09-19T00:14:45;102016.47;;;22.42;100.00
6028;BME280;3042;43.194;27.646;2023-09-19T00:17:12;102029.06;;;22.08;100.00
6028;BME280;3042;43.194;27.646;2023-09-19T00:19:41;102025.66;;;22.16;100.00
6028;BME280;3042;43.194;27.646;2023-09-19T00:22:12;102020.47;;;22.20;100.00
6028;BME280;3042;43.194;27.646;2023-09-19T00:24:41;102016.16;;;22.24;100.00
6028;BME280;3042;43.194;27.646;2023-09-19T00:27:08;102014.38;;;22.21;100.00
6028;BME280;3042;43.194;27.646;2023-09-19T00:29:35;102009.13;;;22.23;100.00
6028;BME280;3042;43.194;27.646;2023-09-19T00:32:06;101989.59;;;22.11;100.00
6028;BME280;3042;43.194;27.646;2023-09-19T00:34:34;102009.91;;;22.19;100.00
6028;BME280;3042;43.194;27.646;2023-09-19T00:37:01;102012.38;;;22.09;100.00
6028;BME280;3042;43.194;27.646;2023-09-19T00:39:29;102008.66;;;21.98;100.00
6028;BME280;3042;43.194;27.646;2023-09-19T00:41:57;102003.56;;;22.07;100.00
6028;BME280;3042;43.194;27.646;2023-09-19T00:44:30;102005.28;;;22.05;100.00
6028;BME280;3042;43.194;27.646;2023-09-19T00:46:57;102017.09;;;21.79;100.00
6028;BME280;3042;43.194;27.646;2023-09-19T00:49:26;102016.56;;;21.51;100.00
6028;BME280;3042;43.194;27.646;2023-09-19T00:51:55;101922.69;;;21.03;100.00
6028;BME280;3042;43.194;27.646;2023-09-19T00:54:22;101974.22;;;21.39;100.00
6028;BME280;3042;43.194;27.646;2023-09-19T00:56:49;102013.31;;;21.64;100.00
6028;BME280;3042;43.194;27.646;2023-09-19T00:59:16;102012.44;;;21.64;100.00
6028;BME280;3042;43.194;27.646;2023-09-19T01:01:43;102014.34;;;21.73;100.00
6028;BME280;3042;43.194;27.646;2023-09-19T01:04:11;102011.75;;;21.74;100.00
6028;BME280;3042;43.194;27.646;2023-09-19T01:06:41;102011.63;;;21.66;100.00
6028;BME280;3042;43.194;27.646;2023-09-19T01:09:08;102009.91;;;21.68;100.00
6028;BME280;3042;43.194;27.646;2023-09-19T01:11:41;102014.44;;;21.77;100.00
6028;BME280;3042;43.194;27.646;2023-09-19T01:14:19;101996.00;;;21.77;100.00
6028;BME280;3042;43.194;27.646;2023-09-19T01:16:56;101965.84;;;21.58;100.00
6028;BME280;3042;43.194;27.646;2023-09-19T01:22:45;101994.38;;;21.84;100.00
6028;BME280;3042;43.194;27.646;2023-09-19T01:28:32;101989.91;;;21.78;100.00
6028;BME280;3042;43.194;27.646;2023-09-19T01:31:09;101902.03;;;21.21;100.00
6028;BME280;3042;43.194;27.646;2023-09-19T01:34:00;101984.94;;;21.48;100.00
6028;BME280;3042;43.194;27.646;2023-09-19T01:36:32;102007.84;;;21.52;100.00
6028;BME280;3042;43.194;27.646;2023-09-19T01:39:04;102007.88;;;21.55;100.00
6028;BME280;3042;43.194;27.646;2023-09-19T01:41:47;101977.63;;;21.35;100.00
6028;BME280;3042;43.194;27.646;2023-09-19T01:44:24;102009.44;;;21.45;100.00
6028;BME280;3042;43.194;27.646;2023-09-19T01:46:58;102009.75;;;21.20;100.00
6028;BME280;3042;43.194;27.646;2023-09-19T01:49:34;101984.50;;;20.85;100.00
6028;BME280;3042;43.194;27.646;2023-09-19T01:52:09;102014.00;;;20.72;100.00
6028;BME280;3042;43.194;27.646;2023-09-19T01:54:45;102020.28;;;20.80;100.00
6028;BME280;3042;43.194;27.646;2023-09-19T01:57:17;102011.75;;;20.91;100.00
6028;BME280;3042;43.194;27.646;2023-09-19T01:59:52;102016.28;;;20.96;100.00
6028;BME280;3042;43.194;27.646;2023-09-19T02:02:25;102007.41;;;20.93;100.00
6028;BME280;3042;43.194;27.646;2023-09-19T02:04:54;102009.00;;;20.86;100.00
6028;BME280;3042;43.194;27.646;2023-09-19T02:07:22;101942.41;;;20.44;100.00
6028;BME280;3042;43.194;27.646;2023-09-19T02:09:49;102012.31;;;20.76;100.00
6028;BME280;3042;43.194;27.646;2023-09-19T02:12:18;102010.66;;;20.79;100.00
6028;BME280;3042;43.194;27.646;2023-09-19T02:14:45;102012.41;;;20.80;100.00
6028;BME280;3042;43.194;27.646;2023-09-19T02:17:12;102003.75;;;20.86;100.00
6028;BME280;3042;43.194;27.646;2023-09-19T02:19:41;101949.81;;;20.61;100.00
6028;BME280;3042;43.194;27.646;2023-09-19T02:22:08;101877.00;;;20.16;100.00
6028;BME280;3042;43.194;27.646;2023-09-19T02:24:36;101916.34;;;20.16;100.00
6028;BME280;3042;43.194;27.646;2023-09-19T02:27:04;101940.16;;;20.25;100.00
6028;BME280;3042;43.194;27.646;2023-09-19T02:29:31;101975.75;;;20.49;100.00
6028;BME280;3042;43.194;27.646;2023-09-19T02:31:59;102005.94;;;20.66;100.00
6028;BME280;3042;43.194;27.646;2023-09-19T02:34:27;101993.75;;;20.70;100.00
6028;BME280;3042;43.194;27.646;2023-09-19T02:36:55;101999.06;;;20.71;100.00
6028;BME280;3042;43.194;27.646;2023-09-19T02:39:25;101838.50;;;19.78;100.00
6028;BME280;3042;43.194;27.646;2023-09-19T02:41:53;102002.56;;;20.70;100.00
6028;BME280;3042;43.194;27.646;2023-09-19T02:44:20;101947.50;;;20.38;100.00
6028;BME280;3042;43.194;27.646;2023-09-19T02:46:48;102002.56;;;20.70;100.00
6028;BME280;3042;43.194;27.646;2023-09-19T02:49:15;102004.91;;;20.59;100.00
6028;BME280;3042;43.194;27.646;2023-09-19T02:51:43;101940.03;;;20.19;100.00
6028;BME280;3042;43.194;27.646;2023-09-19T02:54:12;102000.53;;;20.60;100.00
6028;BME280;3042;43.194;27.646;2023-09-19T02:56:41;101988.50;;;20.68;100.00
6028;BME280;3042;43.194;27.646;2023-09-19T02:59:09;101946.78;;;20.45;100.00
6028;BME280;3042;43.194;27.646;2023-09-19T03:01:37;101993.97;;;20.77;100.00
6028;BME280;3042;43.194;27.646;2023-09-19T03:04:04;101991.34;;;20.79;100.00
6028;BME280;3042;43.194;27.646;2023-09-19T03:06:34;101991.44;;;20.82;100.00
6028;BME280;3042;43.194;27.646;2023-09-19T03:09:01;101991.94;;;20.67;100.00
6028;BME280;3042;43.194;27.646;2023-09-19T03:11:33;102001.09;;;20.47;100.00
6028;BME280;3042;43.194;27.646;2023-09-19T03:14:00;101999.34;;;20.47;100.00
6028;BME280;3042;43.194;27.646;2023-09-19T03:16:28;101865.28;;;19.67;100.00
6028;BME280;3042;43.194;27.646;2023-09-19T03:18:57;102001.81;;;20.39;100.00
6028;BME280;3042;43.194;27.646;2023-09-19T03:21:25;101996.38;;;20.33;100.00
6028;BME280;3042;43.194;27.646;2023-09-19T03:23:55;101953.88;;;20.12;100.00
6028;BME280;3042;43.194;27.646;2023-09-19T03:26:22;102000.72;;;20.31;100.00
6028;BME280;3042;43.194;27.646;2023-09-19T03:28:53;101852.63;;;19.50;100.00
6028;BME280;3042;43.194;27.646;2023-09-19T03:31:21;101997.66;;;20.49;100.00
6028;BME280;3042;43.194;27.646;2023-09-19T03:33:48;101998.84;;;20.60;100.00
6028;BME280;3042;43.194;27.646;2023-09-19T03:36:15;101996.22;;;20.62;100.00
6028;BME280;3042;43.194;27.646;2023-09-19T03:38:42;101997.19;;;20.65;100.00
6028;BME280;3042;43.194;27.646;2023-09-19T03:41:09;102000.69;;;20.66;100.00
6028;BME280;3042;43.194;27.646;2023-09-19T03:43:39;101995.50;;;20.69;100.00
6028;BME280;3042;43.194;27.646;2023-09-19T03:46:08;101988.56;;;20.71;100.00
6028;BME280;3042;43.194;27.646;2023-09-19T03:48:35;101983.25;;;20.68;100.00
6028;BME280;3042;43.194;27.646;2023-09-19T03:51:02;101995.44;;;20.66;100.00
6028;BME280;3042;43.194;27.646;2023-09-19T03:53:30;101990.19;;;20.66;100.00
6028;BME280;3042;43.194;27.646;2023-09-19T03:55:57;101981.31;;;20.61;100.00
6028;BME280;3042;43.194;27.646;2023-09-19T03:58:25;101991.34;;;20.42;100.00
6028;BME280;3042;43.194;27.646;2023-09-19T04:00:55;101930.19;;;19.74;100.00
6028;BME280;3042;43.194;27.646;2023-09-19T04:03:23;101994.47;;;20.26;100.00
6028;BME280;3042;43.194;27.646;2023-09-19T04:06:00;101987.59;;;20.31;100.00
6028;BME280;3042;43.194;27.646;2023-09-19T04:08:28;101987.63;;;20.33;100.00
6028;BME280;3042;43.194;27.646;2023-09-19T04:10:55;101984.31;;;20.41;100.00
6028;BME280;3042;43.194;27.646;2023-09-19T04:13:22;101982.56;;;20.40;100.00
6028;BME280;3042;43.194;27.646;2023-09-19T04:15:49;101985.22;;;20.42;100.00
6028;BME280;3042;43.194;27.646;2023-09-19T04:18:16;101974.91;;;20.50;100.00
6028;BME280;3042;43.194;27.646;2023-09-19T04:20:49;101977.72;;;20.56;100.00
6028;BME280;3042;43.194;27.646;2023-09-19T04:23:16;101978.81;;;20.65;100.00
6028;BME280;3042;43.194;27.646;2023-09-19T04:25:44;101974.69;;;20.78;100.00
6028;BME280;3042;43.194;27.646;2023-09-19T04:28:11;101968.91;;;20.93;100.00
6028;BME280;3042;43.194;27.646;2023-09-19T04:30:38;101971.44;;;20.89;100.00
6028;BME280;3042;43.194;27.646;2023-09-19T04:33:06;101973.66;;;20.72;100.00
6028;BME280;3042;43.194;27.646;2023-09-19T04:35:33;101981.22;;;20.58;100.00
6028;BME280;3042;43.194;27.646;2023-09-19T04:38:02;101314.31;;;16.51;100.00
6028;BME280;3042;43.194;27.646;2023-09-19T04:40:31;101983.28;;;20.71;100.00
6028;BME280;3042;43.194;27.646;2023-09-19T04:42:59;101947.69;;;20.84;100.00
6028;BME280;3042;43.194;27.646;2023-09-19T04:45:28;101973.44;;;21.00;100.00
6028;BME280;3042;43.194;27.646;2023-09-19T04:47:55;101969.91;;;21.00;100.00
6028;BME280;3042;43.194;27.646;2023-09-19T04:50:22;101964.66;;;21.00;100.00
6028;BME280;3042;43.194;27.646;2023-09-19T04:52:52;101975.88;;;20.55;100.00
6028;BME280;3042;43.194;27.646;2023-09-19T04:55:21;101967.28;;;20.59;100.00
6028;BME280;3042;43.194;27.646;2023-09-19T04:57:49;101933.59;;;20.80;100.00
6028;BME280;3042;43.194;27.646;2023-09-19T05:00:19;101955.56;;;21.26;100.00
6028;BME280;3042;43.194;27.646;2023-09-19T05:02:49;101943.75;;;21.47;100.00
6028;BME280;3042;43.194;27.646;2023-09-19T05:05:17;101949.22;;;21.59;100.00
6028;BME280;3042;43.194;27.646;2023-09-19T05:07:44;101877.63;;;21.28;100.00
6028;BME280;3042;43.194;27.646;2023-09-19T05:10:12;101945.25;;;21.83;100.00
6028;BME280;3042;43.194;27.646;2023-09-19T05:12:41;101947.31;;;22.02;100.00
6028;BME280;3042;43.194;27.646;2023-09-19T05:15:10;101941.34;;;22.11;100.00
6028;BME280;3042;43.194;27.646;2023-09-19T05:17:38;101938.06;;;22.26;100.00
6028;BME280;3042;43.194;27.646;2023-09-19T05:20:06;101939.13;;;22.37;100.00
6028;BME280;3042;43.194;27.646;2023-09-19T05:22:46;101930.34;;;22.38;100.00
6028;BME280;3042;43.194;27.646;2023-09-19T05:25:13;101893.22;;;22.20;100.00
6028;BME280;3042;43.194;27.646;2023-09-19T05:27:45;101907.72;;;22.51;100.00
6028;BME280;3042;43.194;27.646;2023-09-19T05:30:13;101923.84;;;22.75;100.00
6028;BME280;3042;43.194;27.646;2023-09-19T05:32:41;101856.75;;;22.49;100.00
6028;BME280;3042;43.194;27.646;2023-09-19T05:35:09;101932.19;;;23.08;100.00
6028;BME280;3042;43.194;27.646;2023-09-19T05:37:38;101819.97;;;22.57;100.00
6028;BME280;3042;43.194;27.646;2023-09-19T05:40:06;101924.69;;;23.42;100.00
6028;BME280;3042;43.194;27.646;2023-09-19T05:42:36;101877.91;;;23.27;100.00
6028;BME280;3042;43.194;27.646;2023-09-19T05:45:06;101931.72;;;23.43;100.00
6028;BME280;3042;43.194;27.646;2023-09-19T05:47:33;101932.97;;;23.80;100.00
6028;BME280;3042;43.194;27.646;2023-09-19T05:50:01;101923.53;;;24.11;100.00
6028;BME280;3042;43.194;27.646;2023-09-19T05:52:28;101898.78;;;23.94;100.00
6028;BME280;3042;43.194;27.646;2023-09-19T05:54:55;101924.63;;;24.41;100.00
6028;BME280;3042;43.194;27.646;2023-09-19T05:57:23;101930.03;;;24.55;100.00
6028;BME280;3042;43.194;27.646;2023-09-19T05:59:50;101931.03;;;24.77;100.00
6028;BME280;3042;43.194;27.646;2023-09-19T06:02:18;101921.44;;;25.03;100.00
6028;BME280;3042;43.194;27.646;2023-09-19T06:04:45;101922.41;;;25.22;100.00
6028;BME280;3042;43.194;27.646;2023-09-19T06:07:12;101925.09;;;25.44;100.00
6028;BME280;3042;43.194;27.646;2023-09-19T06:09:42;101934.84;;;25.74;100.00
6028;BME280;3042;43.194;27.646;2023-09-19T06:12:09;101899.59;;;25.97;100.00
6028;BME280;3042;43.194;27.646;2023-09-19T06:14:39;101913.69;;;26.14;100.00
6028;BME280;3042;43.194;27.646;2023-09-19T06:17:07;101917.19;;;26.35;100.00
6028;BME280;3042;43.194;27.646;2023-09-19T06:19:35;101912.75;;;26.46;100.00
6028;BME280;3042;43.194;27.646;2023-09-19T06:22:02;101910.03;;;26.70;100.00
6028;BME280;3042;43.194;27.646;2023-09-19T06:24:30;101906.44;;;26.84;100.00
6028;BME280;3042;43.194;27.646;2023-09-19T06:26:57;101919.63;;;26.94;100.00
6028;BME280;3042;43.194;27.646;2023-09-19T06:29:26;101933.00;;;26.68;100.00
6028;BME280;3042;43.194;27.646;2023-09-19T06:31:53;101927.75;;;26.67;100.00
6028;BME280;3042;43.194;27.646;2023-09-19T06:34:21;101915.31;;;26.80;100.00
6028;BME280;3042;43.194;27.646;2023-09-19T06:36:51;101904.50;;;27.16;100.00
6028;BME280;3042;43.194;27.646;2023-09-19T06:39:21;101906.22;;;27.31;100.00
6028;BME280;3042;43.194;27.646;2023-09-19T06:41:49;101906.28;;;27.14;100.00
6028;BME280;3042;43.194;27.646;2023-09-19T06:44:16;101913.41;;;27.09;100.00
6028;BME280;3042;43.194;27.646;2023-09-19T06:46:43;101901.66;;;27.52;100.00
6028;BME280;3042;43.194;27.646;2023-09-19T06:49:12;101904.06;;;27.81;100.00
6028;BME280;3042;43.194;27.646;2023-09-19T06:51:40;101893.38;;;27.93;100.00
6028;BME280;3042;43.194;27.646;2023-09-19T06:54:10;101868.88;;;27.54;100.00
6028;BME280;3042;43.194;27.646;2023-09-19T06:56:38;101894.97;;;28.10;100.00
6028;BME280;3042;43.194;27.646;2023-09-19T06:59:07;101870.09;;;28.17;100.00
6028;BME280;3042;43.194;27.646;2023-09-19T07:01:34;101885.56;;;28.61;100.00
6028;BME280;3042;43.194;27.646;2023-09-19T07:04:03;101887.03;;;28.86;100.00
6028;BME280;3042;43.194;27.646;2023-09-19T07:06:30;101879.84;;;28.91;100.00
6028;BME280;3042;43.194;27.646;2023-09-19T07:08:58;101880.66;;;28.96;100.00
6028;BME280;3042;43.194;27.646;2023-09-19T07:11:27;101784.31;;;28.74;100.00
6028;BME280;3042;43.194;27.646;2023-09-19T07:13:56;101866.56;;;29.51;100.00
6028;BME280;3042;43.194;27.646;2023-09-19T07:16:24;101884.94;;;29.11;100.00
6028;BME280;3042;43.194;27.646;2023-09-19T07:18:55;101859.72;;;28.71;100.00
6028;BME280;3042;43.194;27.646;2023-09-19T07:21:23;101889.28;;;29.18;100.00
6028;BME280;3042;43.194;27.646;2023-09-19T07:23:50;101884.41;;;29.46;100.00
6028;BME280;3042;43.194;27.646;2023-09-19T07:26:17;101888.75;;;28.90;100.00
6028;BME280;3042;43.194;27.646;2023-09-19T07:28:45;101883.16;;;29.11;100.00
6028;BME280;3042;43.194;27.646;2023-09-19T07:31:13;101881.44;;;29.07;100.00
6028;BME280;3042;43.194;27.646;2023-09-19T07:33:40;101883.09;;;29.17;100.00
6028;BME280;3042;43.194;27.646;2023-09-19T07:36:11;101882.44;;;28.97;100.00
6028;BME280;3042;43.194;27.646;2023-09-19T07:38:39;101877.72;;;29.19;100.00
6028;BME280;3042;43.194;27.646;2023-09-19T07:41:07;101874.91;;;29.27;100.00
6028;BME280;3042;43.194;27.646;2023-09-19T07:43:34;101877.63;;;29.25;100.00
6028;BME280;3042;43.194;27.646;2023-09-19T07:46:05;101713.84;;;28.37;100.00
6028;BME280;3042;43.194;27.646;2023-09-19T07:48:34;101860.13;;;29.63;100.00
6028;BME280;3042;43.194;27.646;2023-09-19T07:51:03;101854.34;;;29.91;100.00
6028;BME280;3042;43.194;27.646;2023-09-19T07:53:31;101851.53;;;29.98;100.00
6028;BME280;3042;43.194;27.646;2023-09-19T07:56:04;101829.00;;;29.66;100.00
6028;BME280;3042;43.194;27.646;2023-09-19T07:58:31;101751.16;;;29.49;100.00
6028;BME280;3042;43.194;27.646;2023-09-19T08:01:05;101821.06;;;30.12;100.00
6028;BME280;3042;43.194;27.646;2023-09-19T08:03:33;101833.06;;;30.34;100.00
6028;BME280;3042;43.194;27.646;2023-09-19T08:06:00;101825.84;;;30.41;100.00
6028;BME280;3042;43.194;27.646;2023-09-19T08:08:29;101824.56;;;30.60;100.00
6028;BME280;3042;43.194;27.646;2023-09-19T08:10:57;101826.41;;;30.55;100.00
6028;BME280;3042;43.194;27.646;2023-09-19T08:13:24;101821.94;;;30.57;100.00
6028;BME280;3042;43.194;27.646;2023-09-19T08:15:52;101773.19;;;30.05;100.00
6028;BME280;3042;43.194;27.646;2023-09-19T08:18:21;101820.28;;;30.52;100.00
6028;BME280;3042;43.194;27.646;2023-09-19T08:20:52;101754.69;;;30.41;100.00
6028;BME280;3042;43.194;27.646;2023-09-19T08:23:19;101807.56;;;31.03;100.00
6028;BME280;3042;43.194;27.646;2023-09-19T08:25:47;101803.25;;;31.33;100.00
6028;BME280;3042;43.194;27.646;2023-09-19T08:28:14;101794.19;;;31.41;100.00
6028;BME280;3042;43.194;27.646;2023-09-19T08:30:45;101765.06;;;31.30;100.00
6028;BME280;3042;43.194;27.646;2023-09-19T08:33:12;101795.63;;;31.18;100.00
6028;BME280;3042;43.194;27.646;2023-09-19T08:35:42;101789.03;;;31.33;100.00
6028;BME280;3042;43.194;27.646;2023-09-19T08:38:11;101788.78;;;31.44;100.00
6028;BME280;3042;43.194;27.646;2023-09-19T08:40:40;101789.66;;;31.07;100.00
6028;BME280;3042;43.194;27.646;2023-09-19T08:43:09;101764.25;;;30.90;100.00
6028;BME280;3042;43.194;27.646;2023-09-19T08:45:36;101778.09;;;31.08;100.00
6028;BME280;3042;43.194;27.646;2023-09-19T08:48:17;101760.53;;;30.98;100.00
6028;BME280;3042;43.194;27.646;2023-09-19T08:50:53;101770.69;;;31.19;100.00
6028;BME280;3042;43.194;27.646;2023-09-19T08:53:27;101762.75;;;31.52;100.00
6028;BME280;3042;43.194;27.646;2023-09-19T08:55:55;101763.00;;;31.40;100.00
6028;BME280;3042;43.194;27.646;2023-09-19T08:58:26;101752.94;;;31.51;100.00
6028;BME280;3042;43.194;27.646;2023-09-19T09:00:56;101660.09;;;31.26;100.00
6028;BME280;3042;43.194;27.646;2023-09-19T09:03:27;101745.66;;;31.89;100.00
6028;BME280;3042;43.194;27.646;2023-09-19T09:06:00;101676.50;;;31.76;100.00
6028;BME280;3042;43.194;27.646;2023-09-19T09:08:30;101748.53;;;31.83;100.00
6028;BME280;3042;43.194;27.646;2023-09-19T09:10:58;101716.31;;;31.87;100.00
6028;BME280;3042;43.194;27.646;2023-09-19T09:13:26;101734.28;;;32.13;98.33
6028;BME280;3042;43.194;27.646;2023-09-19T09:15:53;101742.88;;;31.61;100.00
6028;BME280;3042;43.194;27.646;2023-09-19T09:18:21;101722.59;;;31.53;100.00
6028;BME280;3042;43.194;27.646;2023-09-19T09:20:49;101739.75;;;31.78;100.00
6028;BME280;3042;43.194;27.646;2023-09-19T09:23:17;101728.69;;;31.91;100.00
6028;BME280;3042;43.194;27.646;2023-09-19T09:25:48;101687.91;;;31.52;100.00
6028;BME280;3042;43.194;27.646;2023-09-19T09:28:21;101731.63;;;31.49;100.00
6028;BME280;3042;43.194;27.646;2023-09-19T09:30:48;101740.78;;;31.41;100.00
6028;BME280;3042;43.194;27.646;2023-09-19T09:33:16;101733.28;;;31.53;100.00
6028;BME280;3042;43.194;27.646;2023-09-19T09:35:51;101736.72;;;31.59;100.00
6028;BME280;3042;43.194;27.646;2023-09-19T09:38:20;101739.19;;;31.32;100.00
6028;BME280;3042;43.194;27.646;2023-09-19T09:40:52;101637.56;;;30.68;100.00
6028;BME280;3042;43.194;27.646;2023-09-19T09:43:31;101701.41;;;31.11;100.00
6028;BME280;3042;43.194;27.646;2023-09-19T09:46:08;101740.09;;;31.31;100.00
6028;BME280;3042;43.194;27.646;2023-09-19T09:49:01;101731.91;;;31.37;100.00
6028;BME280;3042;43.194;27.646;2023-09-19T09:51:45;101705.63;;;30.86;100.00
6028;BME280;3042;43.194;27.646;2023-09-19T09:54:28;101666.78;;;31.08;100.00
6028;BME280;3042;43.194;27.646;2023-09-19T09:57:05;101681.25;;;31.00;100.00
6028;BME280;3042;43.194;27.646;2023-09-19T09:59:51;101711.00;;;31.54;100.00
6028;BME280;3042;43.194;27.646;2023-09-19T10:02:26;101590.19;;;30.76;100.00
6028;BME280;3042;43.194;27.646;2023-09-19T10:05:18;101712.69;;;31.59;100.00
6028;BME280;3042;43.194;27.646;2023-09-19T10:07:56;101711.13;;;31.50;100.00
6028;BME280;3042;43.194;27.646;2023-09-19T10:10:32;101685.81;;;31.30;100.00
6028;BME280;3042;43.194;27.646;2023-09-19T10:13:12;101700.91;;;31.66;100.00
6028;BME280;3042;43.194;27.646;2023-09-19T10:15:42;101658.75;;;31.74;100.00
6028;BME280;3042;43.194;27.646;2023-09-19T10:18:18;101687.97;;;32.11;100.00
6028;BME280;3042;43.194;27.646;2023-09-19T10:20:49;101689.06;;;32.06;100.00
6028;BME280;3042;43.194;27.646;2023-09-19T10:23:19;101676.59;;;32.33;100.00
6028;BME280;3042;43.194;27.646;2023-09-19T10:25:50;101676.25;;;32.45;100.00
6028;BME280;3042;43.194;27.646;2023-09-19T10:28:19;101670.50;;;32.57;100.00
6028;BME280;3042;43.194;27.646;2023-09-19T10:30:48;101666.69;;;32.65;100.00
6028;BME280;3042;43.194;27.646;2023-09-19T10:33:18;101662.84;;;32.45;100.00
6028;BME280;3042;43.194;27.646;2023-09-19T10:35:47;101663.50;;;32.53;98.73
6028;BME280;3042;43.194;27.646;2023-09-19T10:38:17;101642.66;;;32.35;97.08
6028;BME280;3042;43.194;27.646;2023-09-19T10:40:51;101667.97;;;32.25;96.94
6028;BME280;3042;43.194;27.646;2023-09-19T10:43:19;101666.88;;;32.02;95.29
6028;BME280;3042;43.194;27.646;2023-09-19T10:45:47;101663.28;;;32.03;97.59
6028;BME280;3042;43.194;27.646;2023-09-19T10:48:16;101655.41;;;32.27;97.63
6028;BME280;3042;43.194;27.646;2023-09-19T10:50:48;101644.88;;;32.49;100.00
6028;BME280;3042;43.194;27.646;2023-09-19T10:53:17;101642.19;;;32.50;100.00
6028;BME280;3042;43.194;27.646;2023-09-19T10:55:53;101648.22;;;32.29;100.00
6028;BME280;3042;43.194;27.646;2023-09-19T10:58:27;101659.66;;;32.04;100.00
6028;BME280;3042;43.194;27.646;2023-09-19T11:01:00;101649.31;;;32.22;100.00
6028;BME280;3042;43.194;27.646;2023-09-19T11:03:39;101638.09;;;32.38;100.00
6028;BME280;3042;43.194;27.646;2023-09-19T11:06:15;101575.25;;;31.95;100.00
6028;BME280;3042;43.194;27.646;2023-09-19T11:08:56;101650.41;;;32.16;100.00
6028;BME280;3042;43.194;27.646;2023-09-19T11:11:47;101631.84;;;32.38;100.00
6028;BME280;3042;43.194;27.646;2023-09-19T11:14:40;101558.75;;;31.51;100.00
6028;BME280;3042;43.194;27.646;2023-09-19T11:17:37;101623.16;;;32.59;100.00
6028;BME280;3042;43.194;27.646;2023-09-19T11:20:30;101556.00;;;32.39;100.00
6028;BME280;3042;43.194;27.646;2023-09-19T11:23:22;101625.72;;;32.63;100.00
6028;BME280;3042;43.194;27.646;2023-09-19T11:25:50;101532.97;;;31.79;100.00
6028;BME280;3042;43.194;27.646;2023-09-19T11:28:33;101508.38;;;31.67;100.00
6028;BME280;3042;43.194;27.646;2023-09-19T11:34:43;101615.59;;;32.44;100.00
6028;BME280;3042;43.194;27.646;2023-09-19T11:40:28;101611.03;;;32.48;100.00
6028;BME280;3042;43.194;27.646;2023-09-19T11:42:56;101603.53;;;32.31;100.00
6028;BME280;3042;43.194;27.646;2023-09-19T11:48:29;101573.84;;;32.67;100.00
6028;BME280;3042;43.194;27.646;2023-09-19T11:50:58;101598.31;;;32.81;100.00
6028;BME280;3042;43.194;27.646;2023-09-19T11:53:31;101540.66;;;32.44;100.00
6028;BME280;3042;43.194;27.646;2023-09-19T11:56:01;101597.06;;;32.91;100.00
6028;BME280;3042;43.194;27.646;2023-09-19T11:58:30;101591.03;;;32.85;100.00
6028;BME280;3042;43.194;27.646;2023-09-19T12:01:00;101592.94;;;33.08;100.00
6028;BME280;3042;43.194;27.646;2023-09-19T12:03:37;101586.16;;;33.22;100.00
6028;BME280;3042;43.194;27.646;2023-09-19T12:06:11;101552.09;;;32.76;100.00
6028;BME280;3042;43.194;27.646;2023-09-19T12:08:41;101583.34;;;33.00;100.00
6028;BME280;3042;43.194;27.646;2023-09-19T12:11:13;101592.53;;;32.93;100.00
6028;BME280;3042;43.194;27.646;2023-09-19T12:13:44;101580.59;;;33.02;100.00
6028;BME280;3042;43.194;27.646;2023-09-19T12:16:15;101526.09;;;33.05;100.00
6028;BME280;3042;43.194;27.646;2023-09-19T12:18:44;101570.28;;;33.65;100.00
6028;BME280;3042;43.194;27.646;2023-09-19T12:21:24;101575.84;;;33.35;100.00
6028;BME280;3042;43.194;27.646;2023-09-19T12:24:07;101571.47;;;33.33;100.00
6028;BME280;3042;43.194;27.646;2023-09-19T12:26:42;101562.94;;;33.21;100.00
6028;BME280;3042;43.194;27.646;2023-09-19T12:29:17;101545.41;;;32.88;100.00
6028;BME280;3042;43.194;27.646;2023-09-19T12:31:52;101590.59;;;32.72;100.00
6028;BME280;3042;43.194;27.646;2023-09-19T12:34:23;101551.47;;;32.41;100.00
6028;BME280;3042;43.194;27.646;2023-09-19T12:37:09;101540.06;;;32.63;100.00
6028;BME280;3042;43.194;27.646;2023-09-19T12:39:42;101579.63;;;32.79;100.00
6028;BME280;3042;43.194;27.646;2023-09-19T12:42:14;101580.06;;;32.67;100.00
6028;BME280;3042;43.194;27.646;2023-09-19T12:44:43;101515.16;;;32.07;100.00
6028;BME280;3042;43.194;27.646;2023-09-19T12:47:12;101579.28;;;32.64;100.00
6028;BME280;3042;43.194;27.646;2023-09-19T12:50:11;101570.66;;;32.55;100.00
6028;BME280;3042;43.194;27.646;2023-09-19T12:52:46;101573.13;;;32.62;100.00
6028;BME280;3042;43.194;27.646;2023-09-19T12:55:21;101549.63;;;32.43;100.00
6028;BME280;3042;43.194;27.646;2023-09-19T12:58:11;101478.84;;;31.72;100.00
6028;BME280;3042;43.194;27.646;2023-09-19T13:00:41;101578.03;;;32.21;100.00
6028;BME280;3042;43.194;27.646;2023-09-19T13:03:17;101574.03;;;32.61;100.00
6028;BME280;3042;43.194;27.646;2023-09-19T13:05:53;101535.66;;;32.33;100.00
6028;BME280;3042;43.194;27.646;2023-09-19T13:08:25;101543.13;;;32.24;100.00
6028;BME280;3042;43.194;27.646;2023-09-19T13:11:06;101576.41;;;32.43;100.00
6028;BME280;3042;43.194;27.646;2023-09-19T13:13:39;101530.31;;;31.79;100.00
6028;BME280;3042;43.194;27.646;2023-09-19T13:16:06;101592.09;;;31.99;100.00
6028;BME280;3042;43.194;27.646;2023-09-19T13:18:47;101599.22;;;31.69;100.00
6028;BME280;3042;43.194;27.646;2023-09-19T13:21:28;101593.75;;;32.03;100.00
6028;BME280;3042;43.194;27.646;2023-09-19T13:24:18;101590.50;;;31.92;100.00